NKS914 KEWR-KDTW
Flight info
| Callsign | NKS914 |
|---|---|
| Flight time | 1h 23m |
| Altitude | 34000 |
| Route | EWR5 GAYEL J95 CFB DCT TRAAD DCT JACCI FERRL2 |
| Aircraft | A320/M-SDE3FGHIRWY/LB1 |
Departure
| Time | 2026-05-06 11:55 |
|---|---|
| Airport | Newark Liberty International Airport (KEWR) |
Arrival
| Time | 2026-05-06 13:18 |
|---|---|
| Airport | Detroit Metropolitan Wayne County Airport (KDTW) |
| Time | Latitude | Longitude | Altitude | Speed | Heading |
|---|---|---|---|---|---|
| 2026-05-06 11:34 | 40.69406 | -74.17356 | 20 ft | 0 kts | 13° |
| 2026-05-06 11:46 | 40.69405 | -74.17357 | 20 ft | 2 kts | 13° |
| 2026-05-06 11:46 | 40.69380 | -74.17364 | 20 ft | 4 kts | 13° |
| 2026-05-06 11:46 | 40.69353 | -74.17372 | 21 ft | 4 kts | 17° |
| 2026-05-06 11:47 | 40.69333 | -74.17386 | 21 ft | 4 kts | 69° |
| 2026-05-06 11:47 | 40.69331 | -74.17396 | 20 ft | 0 kts | 101° |
| 2026-05-06 11:50 | 40.69330 | -74.17393 | 20 ft | 1 kts | 101° |
| 2026-05-06 11:50 | 40.69327 | -74.17371 | 20 ft | 5 kts | 101° |
| 2026-05-06 11:50 | 40.69306 | -74.17299 | 20 ft | 12 kts | 120° |
| 2026-05-06 11:50 | 40.69253 | -74.17181 | 23 ft | 17 kts | 116° |
| 2026-05-06 11:51 | 40.69216 | -74.17050 | 20 ft | 10 kts | 65° |
| 2026-05-06 11:51 | 40.69282 | -74.16996 | 20 ft | 12 kts | 25° |
| 2026-05-06 11:51 | 40.69362 | -74.16945 | 20 ft | 13 kts | 26° |
| 2026-05-06 11:51 | 40.69451 | -74.16888 | 22 ft | 15 kts | 26° |
| 2026-05-06 11:52 | 40.69553 | -74.16823 | 21 ft | 17 kts | 25° |
| 2026-05-06 11:52 | 40.69669 | -74.16750 | 21 ft | 19 kts | 26° |
| 2026-05-06 11:52 | 40.69788 | -74.16673 | 19 ft | 18 kts | 26° |
| 2026-05-06 11:52 | 40.69893 | -74.16607 | 19 ft | 10 kts | 26° |
| 2026-05-06 11:53 | 40.69903 | -74.16518 | 18 ft | 12 kts | 98° |
| 2026-05-06 11:53 | 40.69873 | -74.16465 | 19 ft | 6 kts | 171° |
| 2026-05-06 11:53 | 40.69851 | -74.16476 | 19 ft | 0 kts | 205° |
| 2026-05-06 11:54 | 40.69845 | -74.16479 | 18 ft | 10 kts | 206° |
| 2026-05-06 11:54 | 40.69555 | -74.16664 | 21 ft | 79 kts | 206° |
| 2026-05-06 11:54 | 40.68886 | -74.17088 | 21 ft | 131 kts | 206° |
| 2026-05-06 11:54 | 40.67953 | -74.17681 | 103 ft | 164 kts | 206° |
| 2026-05-06 11:55 | 40.66876 | -74.18072 | 757 ft | 161 kts | 175° |
| 2026-05-06 11:55 | 40.65808 | -74.17598 | 1407 ft | 165 kts | 153° |
| 2026-05-06 11:55 | 40.65027 | -74.16493 | 2002 ft | 175 kts | 111° |
| 2026-05-06 11:55 | 40.65123 | -74.14901 | 2491 ft | 190 kts | 63° |
| 2026-05-06 11:56 | 40.66173 | -74.13778 | 2857 ft | 204 kts | 9° |
| 2026-05-06 11:56 | 40.67510 | -74.13965 | 3298 ft | 189 kts | 316° |
| 2026-05-06 11:56 | 40.68403 | -74.15143 | 3697 ft | 185 kts | 295° |
| 2026-05-06 11:56 | 40.69139 | -74.16652 | 3994 ft | 201 kts | 292° |
| 2026-05-06 11:57 | 40.69951 | -74.18302 | 4274 ft | 235 kts | 308° |
| 2026-05-06 11:57 | 40.71476 | -74.19469 | 4683 ft | 273 kts | 335° |
| 2026-05-06 11:57 | 40.73387 | -74.20060 | 5393 ft | 287 kts | 345° |
| 2026-05-06 11:57 | 40.75378 | -74.20430 | 6240 ft | 291 kts | 347° |
| 2026-05-06 11:58 | 40.77400 | -74.20761 | 7086 ft | 295 kts | 347° |
| 2026-05-06 11:58 | 40.79440 | -74.21114 | 7900 ft | 298 kts | 346° |
| 2026-05-06 11:58 | 40.81482 | -74.21510 | 8695 ft | 302 kts | 345° |
| 2026-05-06 11:58 | 40.83566 | -74.21957 | 9465 ft | 305 kts | 345° |
| 2026-05-06 11:59 | 40.85671 | -74.22440 | 10170 ft | 311 kts | 344° |
| 2026-05-06 11:59 | 40.87866 | -74.22970 | 10464 ft | 332 kts | 344° |
| 2026-05-06 11:59 | 40.90215 | -74.23552 | 10651 ft | 355 kts | 344° |
| 2026-05-06 11:59 | 40.92687 | -74.24159 | 11110 ft | 366 kts | 345° |
| 2026-05-06 12:00 | 40.95210 | -74.24767 | 11719 ft | 371 kts | 345° |
| 2026-05-06 12:00 | 40.96935 | -74.25179 | 12146 ft | 375 kts | 345° |
| 2026-05-06 12:00 | 40.99522 | -74.25798 | 12795 ft | 380 kts | 345° |
| 2026-05-06 12:00 | 41.02131 | -74.26420 | 13453 ft | 383 kts | 345° |
| 2026-05-06 12:01 | 41.04755 | -74.27040 | 14120 ft | 385 kts | 344° |
| 2026-05-06 12:01 | 41.07397 | -74.27665 | 14760 ft | 386 kts | 344° |
| 2026-05-06 12:01 | 41.10049 | -74.28298 | 15398 ft | 388 kts | 344° |
| 2026-05-06 12:01 | 41.12714 | -74.28936 | 15980 ft | 390 kts | 344° |
| 2026-05-06 12:02 | 41.15392 | -74.29585 | 16573 ft | 392 kts | 343° |
| 2026-05-06 12:02 | 41.18083 | -74.30241 | 17170 ft | 394 kts | 343° |
| 2026-05-06 12:02 | 41.20756 | -74.30896 | 17764 ft | 396 kts | 343° |
| 2026-05-06 12:02 | 41.23468 | -74.31557 | 18330 ft | 398 kts | 343° |
| 2026-05-06 12:03 | 41.26209 | -74.32218 | 18924 ft | 400 kts | 343° |
| 2026-05-06 12:03 | 41.28957 | -74.32878 | 19481 ft | 403 kts | 343° |
| 2026-05-06 12:03 | 41.31721 | -74.33547 | 20022 ft | 405 kts | 343° |
| 2026-05-06 12:03 | 41.34500 | -74.34226 | 20529 ft | 407 kts | 342° |
| 2026-05-06 12:04 | 41.37199 | -74.35265 | 21005 ft | 401 kts | 331° |
| 2026-05-06 12:04 | 41.39642 | -74.36987 | 21468 ft | 395 kts | 320° |
| 2026-05-06 12:04 | 41.41760 | -74.39345 | 21923 ft | 389 kts | 308° |
| 2026-05-06 12:04 | 41.43415 | -74.42088 | 22357 ft | 384 kts | 298° |
| 2026-05-06 12:05 | 41.44771 | -74.45151 | 22787 ft | 384 kts | 295° |
| 2026-05-06 12:05 | 41.46107 | -74.48249 | 23220 ft | 387 kts | 295° |
| 2026-05-06 12:05 | 41.47450 | -74.51366 | 23649 ft | 389 kts | 295° |
| 2026-05-06 12:05 | 41.48802 | -74.54499 | 24080 ft | 391 kts | 295° |
| 2026-05-06 12:06 | 41.50163 | -74.57647 | 24476 ft | 393 kts | 295° |
| 2026-05-06 12:06 | 41.51535 | -74.60820 | 24876 ft | 395 kts | 295° |
| 2026-05-06 12:06 | 41.52911 | -74.64005 | 25261 ft | 397 kts | 295° |
| 2026-05-06 12:06 | 41.54291 | -74.67205 | 25659 ft | 399 kts | 295° |
| 2026-05-06 12:07 | 41.55675 | -74.70419 | 26034 ft | 400 kts | 295° |
| 2026-05-06 12:07 | 41.57063 | -74.73652 | 26401 ft | 403 kts | 295° |
| 2026-05-06 12:07 | 41.58456 | -74.76903 | 26797 ft | 404 kts | 295° |
| 2026-05-06 12:07 | 41.59852 | -74.80166 | 27196 ft | 405 kts | 295° |
| 2026-05-06 12:08 | 41.61251 | -74.83437 | 27596 ft | 406 kts | 295° |
| 2026-05-06 12:08 | 41.62651 | -74.86714 | 27976 ft | 407 kts | 294° |
| 2026-05-06 12:08 | 41.64053 | -74.90001 | 28344 ft | 407 kts | 294° |
| 2026-05-06 12:08 | 41.65458 | -74.93296 | 28718 ft | 409 kts | 294° |
| 2026-05-06 12:09 | 41.66869 | -74.96598 | 29077 ft | 409 kts | 294° |
| 2026-05-06 12:09 | 41.68281 | -74.99912 | 29501 ft | 408 kts | 294° |
| 2026-05-06 12:09 | 41.69682 | -75.03203 | 30012 ft | 406 kts | 294° |
| 2026-05-06 12:09 | 41.71071 | -75.06471 | 30533 ft | 402 kts | 294° |
| 2026-05-06 12:10 | 41.72447 | -75.09715 | 31040 ft | 399 kts | 294° |
| 2026-05-06 12:10 | 41.73813 | -75.12934 | 31541 ft | 396 kts | 294° |
| 2026-05-06 12:10 | 41.75169 | -75.16126 | 32040 ft | 393 kts | 294° |
| 2026-05-06 12:10 | 41.76514 | -75.19297 | 32521 ft | 390 kts | 294° |
| 2026-05-06 12:11 | 41.77845 | -75.22448 | 33000 ft | 388 kts | 293° |
| 2026-05-06 12:11 | 41.79167 | -75.25584 | 33466 ft | 385 kts | 293° |
| 2026-05-06 12:11 | 41.80482 | -75.28703 | 33943 ft | 382 kts | 293° |
| 2026-05-06 12:11 | 41.81781 | -75.31787 | 34383 ft | 379 kts | 292° |
| 2026-05-06 12:12 | 41.83076 | -75.34863 | 34775 ft | 377 kts | 292° |
| 2026-05-06 12:12 | 41.84362 | -75.37918 | 35161 ft | 375 kts | 292° |
| 2026-05-06 12:12 | 41.85639 | -75.40954 | 35547 ft | 373 kts | 292° |
| 2026-05-06 12:12 | 41.86908 | -75.43979 | 35806 ft | 371 kts | 292° |
| 2026-05-06 12:13 | 41.89430 | -75.50026 | 35865 ft | 376 kts | 292° |
| 2026-05-06 12:13 | 41.92005 | -75.56202 | 35851 ft | 377 kts | 292° |
| 2026-05-06 12:14 | 41.94550 | -75.62305 | 35852 ft | 377 kts | 292° |
| 2026-05-06 12:14 | 41.97112 | -75.68459 | 35844 ft | 377 kts | 292° |
| 2026-05-06 12:15 | 41.99667 | -75.74599 | 35835 ft | 377 kts | 292° |
| 2026-05-06 12:15 | 42.02219 | -75.80760 | 35835 ft | 377 kts | 292° |
| 2026-05-06 12:16 | 42.04763 | -75.86927 | 35838 ft | 377 kts | 291° |
| 2026-05-06 12:16 | 42.07311 | -75.93095 | 35839 ft | 377 kts | 291° |
| 2026-05-06 12:17 | 42.09856 | -75.99269 | 35837 ft | 377 kts | 291° |
| 2026-05-06 12:17 | 42.12396 | -76.05445 | 35837 ft | 377 kts | 291° |
| 2026-05-06 12:18 | 42.14897 | -76.11650 | 35835 ft | 374 kts | 287° |
| 2026-05-06 12:18 | 42.16116 | -76.18280 | 35834 ft | 362 kts | 272° |
| 2026-05-06 12:19 | 42.16631 | -76.25037 | 35830 ft | 363 kts | 272° |
| 2026-05-06 12:19 | 42.17157 | -76.31798 | 35827 ft | 363 kts | 272° |
| 2026-05-06 12:20 | 42.17676 | -76.38570 | 35824 ft | 364 kts | 272° |
| 2026-05-06 12:20 | 42.18193 | -76.45348 | 35822 ft | 363 kts | 272° |
| 2026-05-06 12:21 | 42.18696 | -76.52097 | 35824 ft | 364 kts | 272° |
| 2026-05-06 12:21 | 42.19200 | -76.58888 | 35827 ft | 364 kts | 272° |
| 2026-05-06 12:22 | 42.19701 | -76.65678 | 35828 ft | 364 kts | 272° |
| 2026-05-06 12:22 | 42.20201 | -76.72475 | 35827 ft | 364 kts | 271° |
| 2026-05-06 12:23 | 42.20692 | -76.79274 | 35823 ft | 364 kts | 271° |
| 2026-05-06 12:23 | 42.21179 | -76.86075 | 35820 ft | 364 kts | 271° |
| 2026-05-06 12:24 | 42.21667 | -76.92889 | 35820 ft | 365 kts | 271° |
| 2026-05-06 12:24 | 42.22153 | -76.99700 | 35821 ft | 365 kts | 271° |
| 2026-05-06 12:25 | 42.22628 | -77.06511 | 35824 ft | 365 kts | 271° |
| 2026-05-06 12:25 | 42.23105 | -77.13323 | 35828 ft | 364 kts | 271° |
| 2026-05-06 12:26 | 42.23577 | -77.20133 | 35832 ft | 365 kts | 271° |
| 2026-05-06 12:26 | 42.24043 | -77.26942 | 35833 ft | 364 kts | 271° |
| 2026-05-06 12:27 | 42.24506 | -77.33759 | 35841 ft | 365 kts | 271° |
| 2026-05-06 12:27 | 42.24969 | -77.40568 | 35843 ft | 364 kts | 271° |
| 2026-05-06 12:28 | 42.25416 | -77.47369 | 35853 ft | 364 kts | 271° |
| 2026-05-06 12:28 | 42.26091 | -77.54145 | 35849 ft | 368 kts | 278° |
| 2026-05-06 12:29 | 42.27308 | -77.60856 | 35855 ft | 368 kts | 278° |
| 2026-05-06 12:29 | 42.28519 | -77.67518 | 35865 ft | 368 kts | 278° |
| 2026-05-06 12:30 | 42.29728 | -77.74234 | 35858 ft | 368 kts | 278° |
| 2026-05-06 12:30 | 42.30935 | -77.80962 | 35864 ft | 368 kts | 278° |
| 2026-05-06 12:31 | 42.32138 | -77.87681 | 35857 ft | 368 kts | 278° |
| 2026-05-06 12:31 | 42.33335 | -77.94404 | 35866 ft | 368 kts | 277° |
| 2026-05-06 12:32 | 42.34523 | -78.01128 | 35855 ft | 368 kts | 277° |
| 2026-05-06 12:32 | 42.35709 | -78.07850 | 35857 ft | 368 kts | 277° |
| 2026-05-06 12:33 | 42.36886 | -78.14577 | 35852 ft | 368 kts | 277° |
| 2026-05-06 12:33 | 42.38070 | -78.21304 | 35843 ft | 368 kts | 277° |
| 2026-05-06 12:34 | 42.39251 | -78.27998 | 35844 ft | 368 kts | 277° |
| 2026-05-06 12:34 | 42.40420 | -78.34739 | 35841 ft | 368 kts | 277° |
| 2026-05-06 12:35 | 42.41583 | -78.41490 | 35833 ft | 369 kts | 277° |
| 2026-05-06 12:35 | 42.42752 | -78.48250 | 35830 ft | 369 kts | 277° |
| 2026-05-06 12:36 | 42.43918 | -78.55020 | 35826 ft | 370 kts | 277° |
| 2026-05-06 12:36 | 42.45082 | -78.61804 | 35824 ft | 370 kts | 277° |
| 2026-05-06 12:37 | 42.46242 | -78.68604 | 35821 ft | 371 kts | 277° |
| 2026-05-06 12:37 | 42.47342 | -78.75379 | 35827 ft | 368 kts | 272° |
| 2026-05-06 12:38 | 42.47541 | -78.82221 | 35831 ft | 362 kts | 264° |
| 2026-05-06 12:38 | 42.47289 | -78.89032 | 35834 ft | 362 kts | 264° |
| 2026-05-06 12:39 | 42.47117 | -78.95860 | 35839 ft | 363 kts | 265° |
| 2026-05-06 12:39 | 42.47071 | -79.02709 | 35845 ft | 364 kts | 266° |
| 2026-05-06 12:40 | 42.47065 | -79.09565 | 35843 ft | 364 kts | 265° |
| 2026-05-06 12:40 | 42.47041 | -79.16423 | 35864 ft | 364 kts | 265° |
| 2026-05-06 12:41 | 42.47006 | -79.23289 | 35872 ft | 365 kts | 265° |
| 2026-05-06 12:41 | 42.46960 | -79.30156 | 35864 ft | 364 kts | 265° |
| 2026-05-06 12:42 | 42.46908 | -79.37015 | 35881 ft | 364 kts | 265° |
| 2026-05-06 12:42 | 42.46853 | -79.43875 | 35882 ft | 364 kts | 265° |
| 2026-05-06 12:43 | 42.46798 | -79.50734 | 35885 ft | 364 kts | 265° |
| 2026-05-06 12:43 | 42.46735 | -79.57585 | 35886 ft | 364 kts | 265° |
| 2026-05-06 12:44 | 42.46671 | -79.64388 | 35886 ft | 363 kts | 265° |
| 2026-05-06 12:44 | 42.46611 | -79.71232 | 35888 ft | 363 kts | 265° |
| 2026-05-06 12:45 | 42.46539 | -79.78066 | 35887 ft | 362 kts | 265° |
| 2026-05-06 12:46 | 42.46417 | -79.88302 | 35887 ft | 362 kts | 265° |
| 2026-05-06 12:46 | 42.46336 | -79.95119 | 35888 ft | 362 kts | 265° |
| 2026-05-06 12:47 | 42.46254 | -80.01931 | 35888 ft | 362 kts | 265° |
| 2026-05-06 12:47 | 42.46170 | -80.08732 | 35885 ft | 361 kts | 265° |
| 2026-05-06 12:48 | 42.46076 | -80.15531 | 35883 ft | 361 kts | 265° |
| 2026-05-06 12:48 | 42.45973 | -80.22328 | 35882 ft | 361 kts | 265° |
| 2026-05-06 12:49 | 42.45868 | -80.29127 | 35882 ft | 361 kts | 265° |
| 2026-05-06 12:49 | 42.45756 | -80.35933 | 35882 ft | 362 kts | 265° |
| 2026-05-06 12:50 | 42.45645 | -80.42749 | 35886 ft | 362 kts | 265° |
| 2026-05-06 12:50 | 42.45533 | -80.49568 | 35887 ft | 362 kts | 265° |
| 2026-05-06 12:51 | 42.45436 | -80.55241 | 35885 ft | 362 kts | 265° |
| 2026-05-06 12:51 | 42.45298 | -80.63175 | 35877 ft | 363 kts | 264° |
| 2026-05-06 12:52 | 42.45167 | -80.70003 | 35881 ft | 363 kts | 265° |
| 2026-05-06 12:52 | 42.45055 | -80.75721 | 35882 ft | 363 kts | 265° |
| 2026-05-06 12:53 | 42.44917 | -80.82549 | 35881 ft | 363 kts | 265° |
| 2026-05-06 12:53 | 42.44782 | -80.89339 | 35885 ft | 363 kts | 265° |
| 2026-05-06 12:54 | 42.44638 | -80.96168 | 35886 ft | 363 kts | 264° |
| 2026-05-06 12:54 | 42.44492 | -81.02972 | 35904 ft | 360 kts | 264° |
| 2026-05-06 12:55 | 42.44348 | -81.09727 | 35906 ft | 358 kts | 265° |
| 2026-05-06 12:55 | 42.44198 | -81.16448 | 35906 ft | 357 kts | 265° |
| 2026-05-06 12:56 | 42.44045 | -81.23148 | 35909 ft | 356 kts | 264° |
| 2026-05-06 12:56 | 42.43886 | -81.29828 | 35912 ft | 355 kts | 264° |
| 2026-05-06 12:57 | 42.43722 | -81.36503 | 35915 ft | 354 kts | 264° |
| 2026-05-06 12:57 | 42.43553 | -81.43164 | 35914 ft | 354 kts | 264° |
| 2026-05-06 12:58 | 42.43386 | -81.49813 | 35918 ft | 353 kts | 264° |
| 2026-05-06 12:58 | 42.43211 | -81.56478 | 35033 ft | 361 kts | 264° |
| 2026-05-06 12:58 | 42.43117 | -81.59923 | 34019 ft | 370 kts | 264° |
| 2026-05-06 12:59 | 42.42726 | -81.63308 | 33535 ft | 360 kts | 250° |
| 2026-05-06 12:59 | 42.41852 | -81.66457 | 32498 ft | 356 kts | 249° |
| 2026-05-06 12:59 | 42.40967 | -81.69596 | 31380 ft | 356 kts | 249° |
| 2026-05-06 12:59 | 42.40093 | -81.72695 | 30456 ft | 350 kts | 249° |
| 2026-05-06 13:00 | 42.39369 | -81.75799 | 29523 ft | 345 kts | 259° |
| 2026-05-06 13:00 | 42.39191 | -81.79019 | 28572 ft | 341 kts | 263° |
| 2026-05-06 13:00 | 42.39066 | -81.82206 | 27584 ft | 338 kts | 263° |
| 2026-05-06 13:00 | 42.38948 | -81.85367 | 26584 ft | 335 kts | 264° |
| 2026-05-06 13:01 | 42.38838 | -81.88498 | 25607 ft | 332 kts | 265° |
| 2026-05-06 13:01 | 42.38733 | -81.91603 | 24637 ft | 329 kts | 265° |
| 2026-05-06 13:01 | 42.38628 | -81.94686 | 23689 ft | 327 kts | 266° |
| 2026-05-06 13:01 | 42.38519 | -81.97749 | 22776 ft | 324 kts | 265° |
| 2026-05-06 13:02 | 42.38412 | -82.00785 | 21837 ft | 322 kts | 265° |
| 2026-05-06 13:02 | 42.38306 | -82.03757 | 20923 ft | 320 kts | 265° |
| 2026-05-06 13:02 | 42.38198 | -82.06786 | 19983 ft | 317 kts | 265° |
| 2026-05-06 13:02 | 42.38100 | -82.09710 | 19068 ft | 314 kts | 266° |
| 2026-05-06 13:03 | 42.38011 | -82.12652 | 18136 ft | 312 kts | 266° |
| 2026-05-06 13:03 | 42.37928 | -82.15576 | 17210 ft | 310 kts | 266° |
| 2026-05-06 13:03 | 42.37848 | -82.18482 | 16280 ft | 311 kts | 265° |
| 2026-05-06 13:03 | 42.37766 | -82.21420 | 15780 ft | 310 kts | 265° |
| 2026-05-06 13:04 | 42.37686 | -82.24328 | 15529 ft | 309 kts | 265° |
| 2026-05-06 13:04 | 42.37604 | -82.27227 | 15278 ft | 308 kts | 265° |
| 2026-05-06 13:04 | 42.37523 | -82.30081 | 14950 ft | 301 kts | 265° |
| 2026-05-06 13:04 | 42.37444 | -82.32887 | 14538 ft | 297 kts | 265° |
| 2026-05-06 13:05 | 42.37363 | -82.35659 | 14134 ft | 293 kts | 265° |
| 2026-05-06 13:05 | 42.37281 | -82.38401 | 13721 ft | 290 kts | 265° |
| 2026-05-06 13:05 | 42.37199 | -82.41121 | 13319 ft | 289 kts | 265° |
| 2026-05-06 13:05 | 42.37117 | -82.43822 | 12914 ft | 286 kts | 265° |
| 2026-05-06 13:06 | 42.37033 | -82.46505 | 12511 ft | 285 kts | 265° |
| 2026-05-06 13:06 | 42.36949 | -82.49179 | 12043 ft | 285 kts | 265° |
| 2026-05-06 13:06 | 42.36865 | -82.51844 | 11635 ft | 283 kts | 265° |
| 2026-05-06 13:06 | 42.36781 | -82.54496 | 11234 ft | 281 kts | 265° |
| 2026-05-06 13:07 | 42.36699 | -82.57113 | 11030 ft | 274 kts | 265° |
| 2026-05-06 13:07 | 42.36621 | -82.59644 | 10845 ft | 267 kts | 265° |
| 2026-05-06 13:07 | 42.36543 | -82.62123 | 10626 ft | 263 kts | 266° |
| 2026-05-06 13:07 | 42.36463 | -82.64588 | 10500 ft | 264 kts | 266° |
| 2026-05-06 13:08 | 42.36382 | -82.67066 | 10376 ft | 264 kts | 266° |
| 2026-05-06 13:08 | 42.36302 | -82.69497 | 10141 ft | 264 kts | 266° |
| 2026-05-06 13:08 | 42.36218 | -82.72029 | 9785 ft | 264 kts | 266° |
| 2026-05-06 13:08 | 42.36133 | -82.74505 | 9423 ft | 264 kts | 266° |
| 2026-05-06 13:09 | 42.36052 | -82.76948 | 9060 ft | 264 kts | 267° |
| 2026-05-06 13:09 | 42.35970 | -82.79434 | 8698 ft | 265 kts | 268° |
| 2026-05-06 13:09 | 42.35888 | -82.81927 | 8332 ft | 266 kts | 268° |
| 2026-05-06 13:09 | 42.35805 | -82.84428 | 7951 ft | 267 kts | 268° |
| 2026-05-06 13:10 | 42.35718 | -82.86937 | 7576 ft | 268 kts | 268° |
| 2026-05-06 13:10 | 42.35631 | -82.89451 | 7197 ft | 267 kts | 268° |
| 2026-05-06 13:10 | 42.35543 | -82.91949 | 6821 ft | 265 kts | 268° |
| 2026-05-06 13:10 | 42.35458 | -82.94428 | 6445 ft | 263 kts | 269° |
| 2026-05-06 13:11 | 42.35373 | -82.96892 | 6078 ft | 261 kts | 269° |
| 2026-05-06 13:11 | 42.35287 | -82.99337 | 5717 ft | 260 kts | 269° |
| 2026-05-06 13:11 | 42.35199 | -83.01781 | 5357 ft | 262 kts | 269° |
| 2026-05-06 13:11 | 42.35111 | -83.04245 | 4988 ft | 262 kts | 269° |
| 2026-05-06 13:12 | 42.35022 | -83.06712 | 4613 ft | 263 kts | 269° |
| 2026-05-06 13:12 | 42.34932 | -83.09186 | 4249 ft | 264 kts | 269° |
| 2026-05-06 13:12 | 42.34842 | -83.11668 | 3874 ft | 265 kts | 269° |
| 2026-05-06 13:12 | 42.34749 | -83.14159 | 3500 ft | 266 kts | 269° |
| 2026-05-06 13:13 | 42.34657 | -83.16654 | 3190 ft | 264 kts | 269° |
| 2026-05-06 13:13 | 42.34566 | -83.19096 | 3063 ft | 256 kts | 269° |
| 2026-05-06 13:13 | 42.34476 | -83.21437 | 2997 ft | 239 kts | 269° |
| 2026-05-06 13:13 | 42.34394 | -83.23560 | 3002 ft | 216 kts | 269° |
| 2026-05-06 13:14 | 42.34102 | -83.25501 | 2953 ft | 206 kts | 250° |
| 2026-05-06 13:14 | 42.33792 | -83.26332 | 2883 ft | 204 kts | 240° |
| 2026-05-06 13:14 | 42.32973 | -83.27608 | 2736 ft | 194 kts | 222° |
| 2026-05-06 13:14 | 42.31871 | -83.28527 | 2514 ft | 177 kts | 211° |
| 2026-05-06 13:15 | 42.31186 | -83.29033 | 2375 ft | 162 kts | 211° |
| 2026-05-06 13:15 | 42.30390 | -83.29625 | 2204 ft | 152 kts | 212° |
| 2026-05-06 13:15 | 42.29480 | -83.30300 | 2016 ft | 147 kts | 211° |
| 2026-05-06 13:15 | 42.28591 | -83.30957 | 1836 ft | 144 kts | 211° |
| 2026-05-06 13:16 | 42.27714 | -83.31606 | 1658 ft | 143 kts | 211° |
| 2026-05-06 13:16 | 42.26845 | -83.32248 | 1472 ft | 142 kts | 211° |
| 2026-05-06 13:16 | 42.25979 | -83.32888 | 1298 ft | 142 kts | 211° |
| 2026-05-06 13:16 | 42.25114 | -83.33526 | 1114 ft | 141 kts | 211° |
| 2026-05-06 13:17 | 42.24251 | -83.34160 | 940 ft | 141 kts | 211° |
| 2026-05-06 13:17 | 42.23392 | -83.34795 | 755 ft | 141 kts | 211° |
| 2026-05-06 13:17 | 42.22555 | -83.35416 | 650 ft | 126 kts | 210° |
| 2026-05-06 13:17 | 42.21909 | -83.35896 | 645 ft | 87 kts | 209° |
| 2026-05-06 13:18 | 42.21471 | -83.36218 | 645 ft | 60 kts | 208° |
| 2026-05-06 13:18 | 42.21281 | -83.36356 | 646 ft | 13 kts | 208° |
| 2026-05-06 13:18 | 42.21201 | -83.36323 | 645 ft | 14 kts | 124° |
| 2026-05-06 13:18 | 42.21144 | -83.36211 | 648 ft | 12 kts | 149° |
| 2026-05-06 13:19 | 42.21067 | -83.36234 | 647 ft | 13 kts | 208° |
| 2026-05-06 13:19 | 42.20980 | -83.36298 | 647 ft | 14 kts | 209° |
| 2026-05-06 13:19 | 42.20891 | -83.36364 | 648 ft | 16 kts | 208° |
| 2026-05-06 13:19 | 42.20808 | -83.36424 | 649 ft | 13 kts | 208° |
| 2026-05-06 13:20 | 42.20776 | -83.36429 | 648 ft | 3 kts | 127° |
| 2026-05-06 13:20 | 42.20770 | -83.36422 | 647 ft | 0 kts | 137° |
| 2026-05-06 13:20 | 42.20770 | -83.36419 | 647 ft | 0 kts | 115° |
| 2026-05-06 13:20 | 42.20770 | -83.36412 | 647 ft | 2 kts | 94° |
| 2026-05-06 13:21 | 42.20773 | -83.36384 | 647 ft | 4 kts | 83° |
| 2026-05-06 13:21 | 42.20776 | -83.36354 | 647 ft | 1 kts | 83° |
| 2026-05-06 13:21 | 42.20777 | -83.36342 | 650 ft | 1 kts | 83° |
| 2026-05-06 13:21 | 42.20777 | -83.36341 | 647 ft | 0 kts | 83° |